LZTT/TAT METAR and TAF weather

Enter ICAO airport designator
Station Type Date Time Source
LZTT METAR 2021/03/08 12:00 UTC NOAA

LZTT 081200Z 07006KT 9000 -SN BKN030 BKN056 M00/M04 Q1014 NOSIG


Station Type Date Time Source
LZTT Decoded METAR 2021/03/08 12:00 UTC NOAA

Poprad / Tatry, Slovakia (LZTT) 49-04N 020-15E 695M
Mar 08, 2021 - 07:00 AM EST / 2021.03.08 1200 UTC
Wind: from the ENE (070 degrees) at 7 MPH (6 KT):0
Visibility: 5 mile(s):0
Sky conditions: mostly cloudy
Weather: light snow
Temperature: 32 F (0 C)
Windchill: 24 F (-4 C):1
Dew Point: 24 F (-4 C)
Relative Humidity: 74%
Pressure (altimeter): 29.94 in. Hg (1014 hPa)
ob: LZTT 081200Z 07006KT 9000 -SN BKN030 BKN056 M00/M04 Q1014 NOSIG
cycle: 12

Station Type Date Time Source
LZTT TAF 2021/03/08 12:55 UTC NOAA

TAF LZTT 081100Z 0812/0912 VRB02KT 9999 SCT030 BKN050
TEMPO 0812/0817 06015KT 2500 SHSN SCT011 BKN025
BECMG 0820/0822 VRB02KT CAVOK PROB30
TEMPO 0902/0908 9999 SCT005

Example: see airport list